Time;durP1;ratioP1;P1;durP2;ratioP2;P2;SDS_P1;SDS_P2;PMS_P1;PMS_P2;Temp;Humidity;BMP_temperature;BMP_pressure;BME280_temperature;BME280_humidity;BME280_pressure;Samples;Min_cycle;Max_cycle;Signal;HPM_P1;HPM_P2
2024/01/10 00:01:13;;;;;;;2.45;2.35;;;;;;;-2.05;90.43;102500.00;5106793;28;20020;-66
2024/01/10 00:03:38;;;;;;;2.88;2.28;;;;;;;-2.08;90.45;102501.44;5106520;28;20027;-65
2024/01/10 00:06:04;;;;;;;2.33;2.15;;;;;;;-2.06;90.46;102502.44;5106853;28;20024;-65
2024/01/10 00:08:30;;;;;;;1.33;1.23;;;;;;;-2.09;90.54;102504.75;5106461;28;20020;-66
2024/01/10 00:10:55;;;;;;;13.70;4.65;;;;;;;-2.14;90.42;102494.22;5106599;28;20027;-70
2024/01/10 00:13:21;;;;;;;5.95;2.45;;;;;;;-2.19;90.74;102492.97;5106583;28;20368;-69
2024/01/10 00:15:48;;;;;;;1.48;1.35;;;;;;;-2.16;90.44;102495.75;5105023;28;20135;-69
2024/01/10 00:18:13;;;;;;;0.73;0.73;;;;;;;-2.12;90.23;102500.28;5106403;28;20019;-69
2024/01/10 00:20:38;;;;;;;1.50;1.40;;;;;;;-2.19;90.52;102487.88;5105063;28;20030;-68
2024/01/10 00:23:06;;;;;;;2.22;1.90;;;;;;;-2.13;90.38;102494.34;5106425;28;20480;-69
2024/01/10 00:25:31;;;;;;;1.48;1.33;;;;;;;-2.18;90.46;102487.09;5104953;28;20428;-69
2024/01/10 00:27:56;;;;;;;1.35;1.25;;;;;;;-2.19;90.58;102495.50;5104976;28;20020;-69
2024/01/10 00:30:22;;;;;;;3.05;2.78;;;;;;;-2.27;89.98;102488.16;5105899;28;20035;-69
2024/01/10 00:32:48;;;;;;;1.55;1.48;;;;;;;-2.40;89.48;102478.69;5104454;28;20040;-69
2024/01/10 00:35:13;;;;;;;1.95;1.85;;;;;;;-2.40;89.10;102487.97;5106127;28;20048;-68
2024/01/10 00:37:38;;;;;;;1.52;1.40;;;;;;;-2.44;89.35;102471.56;5106123;28;20050;-69
2024/01/10 00:40:04;;;;;;;1.95;1.25;;;;;;;-2.47;89.40;102485.69;5106062;28;20024;-69
2024/01/10 00:42:30;;;;;;;0.65;0.65;;;;;;;-2.52;89.45;102481.13;5105938;28;20028;-69
2024/01/10 00:44:55;;;;;;;1.60;1.23;;;;;;;-2.60;89.62;102474.56;5105904;28;20023;-69
2024/01/10 00:47:20;;;;;;;1.42;1.33;;;;;;;-2.58;89.85;102485.75;5106118;28;20055;-69
2024/01/10 00:49:46;;;;;;;1.90;1.80;;;;;;;-2.64;89.64;102485.25;5105795;28;20032;-69
2024/01/10 00:52:11;;;;;;;1.15;1.05;;;;;;;-2.68;89.76;102478.13;5105906;28;20391;-68
2024/01/10 00:54:36;;;;;;;1.60;1.50;;;;;;;-2.71;89.98;102481.34;5105713;28;20018;-69
2024/01/10 00:57:02;;;;;;;1.33;1.23;;;;;;;-2.84;89.90;102476.91;5105680;28;20047;-68
2024/01/10 00:59:27;;;;;;;1.33;1.33;;;;;;;-2.86;89.63;102474.25;5105545;28;20028;-69
2024/01/10 01:01:52;;;;;;;0.88;0.88;;;;;;;-2.83;89.72;102471.09;5105711;28;20041;-69
2024/01/10 01:04:18;;;;;;;2.95;2.15;;;;;;;-2.88;89.66;102467.28;5105065;28;20039;-68
2024/01/10 01:06:43;;;;;;;1.27;1.25;;;;;;;-2.99;89.68;102467.28;5105386;28;20069;-69
2024/01/10 01:09:08;;;;;;;3.10;1.77;;;;;;;-2.97;89.51;102466.53;5105528;28;20028;-69
2024/01/10 01:11:34;;;;;;;2.80;2.40;;;;;;;-2.94;89.53;102466.78;5105425;28;20020;-69
2024/01/10 01:13:59;;;;;;;1.13;1.13;;;;;;;-2.94;89.77;102462.56;5105514;28;20024;-69
2024/01/10 01:16:24;;;;;;;3.00;1.88;;;;;;;-2.96;89.96;102455.59;5105563;28;20040;-69
2024/01/10 01:18:50;;;;;;;1.52;1.42;;;;;;;-2.94;90.04;102469.34;5105193;28;20024;-69
2024/01/10 01:21:15;;;;;;;1.25;1.15;;;;;;;-2.95;89.81;102472.63;5105601;28;20088;-69
2024/01/10 01:23:40;;;;;;;1.45;1.35;;;;;;;-2.96;89.50;102478.47;5105254;28;20016;-69
2024/01/10 01:26:06;;;;;;;2.35;2.05;;;;;;;-2.98;89.31;102460.56;5105251;28;20211;-69
2024/01/10 01:28:32;;;;;;;1.42;1.33;;;;;;;-2.95;89.47;102470.97;5105425;28;20134;-68
2024/01/10 01:30:57;;;;;;;1.80;1.70;;;;;;;-2.97;89.60;102466.53;5104903;28;20099;-68
2024/01/10 01:33:22;;;;;;;3.45;1.75;;;;;;;-2.99;89.89;102462.22;5103716;28;20041;-68
2024/01/10 01:35:48;;;;;;;3.85;3.47;;;;;;;-2.91;89.95;102482.28;5103707;28;20024;-69
2024/01/10 01:38:13;;;;;;;3.17;2.88;;;;;;;-2.91;89.99;102473.03;5103817;28;20016;-69
2024/01/10 01:40:39;;;;;;;2.00;1.67;;;;;;;-2.91;90.05;102472.13;5105306;28;20331;-69
2024/01/10 01:43:21;;;;;;;1.50;1.25;;;;;;;-2.91;89.83;102474.66;5105186;28;20463;-68
2024/01/10 01:45:47;;;;;;;2.45;1.80;;;;;;;-3.01;89.58;102476.47;5103909;28;20384;-70
2024/01/10 01:48:13;;;;;;;2.10;1.58;;;;;;;-2.97;89.54;102482.66;5105194;28;20020;-68
2024/01/10 01:50:40;;;;;;;2.00;1.13;;;;;;;-2.97;89.53;102485.22;5104933;28;20016;-69
2024/01/10 01:53:05;;;;;;;2.28;2.17;;;;;;;-2.91;89.67;102489.91;5103674;28;20054;-69
2024/01/10 01:55:31;;;;;;;3.88;2.35;;;;;;;-2.93;89.90;102486.34;5105277;28;20023;-69
2024/01/10 01:57:56;;;;;;;2.47;2.30;;;;;;;-2.91;90.18;102487.38;5103578;28;20030;-70
2024/01/10 02:00:22;;;;;;;1.05;1.02;;;;;;;-2.91;89.78;102480.66;5104741;28;20020;-69
2024/01/10 02:02:48;;;;;;;1.55;1.50;;;;;;;-2.89;89.77;102476.56;5103848;28;20016;-70
2024/01/10 02:05:15;;;;;;;3.85;1.30;;;;;;;-2.91;89.94;102472.13;5104671;28;20048;-69
2024/01/10 02:07:40;;;;;;;2.13;2.00;;;;;;;-2.83;89.87;102473.63;5104850;28;20039;-69
2024/01/10 02:10:06;;;;;;;4.97;3.38;;;;;;;-2.86;89.97;102474.25;5104716;28;20051;-69
2024/01/10 02:12:32;;;;;;;2.40;2.25;;;;;;;-2.83;90.12;102476.19;5103661;28;20020;-69
2024/01/10 02:14:58;;;;;;;2.35;1.67;;;;;;;-2.84;90.31;102482.00;5104964;28;20028;-68
2024/01/10 02:17:24;;;;;;;3.60;2.20;;;;;;;-2.88;90.11;102472.38;5108271;28;20027;-69
2024/01/10 02:19:49;;;;;;;4.85;4.07;;;;;;;-2.88;90.27;102487.63;5107405;28;20028;-69
2024/01/10 02:22:14;;;;;;;10.70;2.90;;;;;;;-2.92;89.90;102477.94;5108985;28;20031;-68
2024/01/10 02:24:40;;;;;;;6.55;2.65;;;;;;;-2.94;89.81;102477.81;5107326;28;20016;-68
2024/01/10 02:27:05;;;;;;;1.58;1.42;;;;;;;-3.02;89.72;102464.50;5108691;28;20024;-69
2024/01/10 02:29:31;;;;;;;1.52;1.40;;;;;;;-3.03;89.46;102464.38;5108448;28;20035;-69
2024/01/10 02:31:56;;;;;;;3.53;1.33;;;;;;;-3.13;89.17;102462.78;5106907;28;20399;-68
2024/01/10 02:34:22;;;;;;;3.35;1.67;;;;;;;-3.16;88.82;102455.78;5106987;28;20032;-68
2024/01/10 02:36:47;;;;;;;4.07;2.40;;;;;;;-3.20;88.90;102458.84;5108395;28;20050;-68
2024/01/10 02:39:12;;;;;;;0.98;0.93;;;;;;;-3.17;88.73;102458.19;5108057;28;20020;-69
2024/01/10 02:41:38;;;;;;;2.60;1.58;;;;;;;-3.21;89.14;102453.63;5108079;28;20455;-69
2024/01/10 02:44:03;;;;;;;3.15;2.53;;;;;;;-3.18;89.19;102469.13;5108219;28;20126;-69
2024/01/10 02:46:29;;;;;;;2.05;1.95;;;;;;;-3.18;89.27;102466.59;5106931;28;20056;-68
2024/01/10 02:48:57;;;;;;;1.67;1.42;;;;;;;-3.15;89.23;102464.28;5107978;28;20123;-68
2024/01/10 02:51:24;;;;;;;1.17;1.17;;;;;;;-3.20;89.42;102458.84;5108250;28;20035;-69
2024/01/10 02:53:50;;;;;;;3.40;3.10;;;;;;;-3.26;89.34;102449.03;5108068;28;20032;-69
2024/01/10 02:56:15;;;;;;;17.70;6.75;;;;;;;-3.33;89.21;102446.78;5108208;28;20089;-69
2024/01/10 02:58:40;;;;;;;4.65;2.95;;;;;;;-3.38;88.92;102445.50;5107967;28;20035;-69
2024/01/10 03:01:06;;;;;;;3.33;1.67;;;;;;;-3.45;88.76;102450.88;5108041;28;20020;-69
2024/01/10 03:03:31;;;;;;;1.55;1.30;;;;;;;-3.57;88.68;102443.09;5107715;28;20036;-68
2024/01/10 03:05:57;;;;;;;4.53;2.90;;;;;;;-3.51;88.08;102458.84;5107745;28;20024;-69
2024/01/10 03:08:22;;;;;;;1.10;1.10;;;;;;;-3.51;88.50;102462.28;5107886;28;20027;-69
2024/01/10 03:10:47;;;;;;;2.20;2.00;;;;;;;-3.56;88.88;102443.22;5106467;28;20020;-69
2024/01/10 03:13:13;;;;;;;3.50;3.20;;;;;;;-3.59;89.11;102445.53;5107756;28;20123;-69
2024/01/10 03:15:38;;;;;;;2.03;1.92;;;;;;;-3.66;88.91;102448.31;5106389;28;20060;-68
2024/01/10 03:18:04;;;;;;;3.85;3.58;;;;;;;-3.79;88.37;102443.88;5107629;28;20020;-69
2024/01/10 03:20:30;;;;;;;4.07;2.30;;;;;;;-3.86;88.53;102432.31;5107597;28;20031;-69
2024/01/10 03:22:55;;;;;;;2.75;2.55;;;;;;;-3.74;88.84;102437.53;5107591;28;20048;-68
2024/01/10 03:25:20;;;;;;;2.50;2.03;;;;;;;-3.74;89.02;102440.09;5107654;28;20080;-68
2024/01/10 03:27:46;;;;;;;2.92;1.70;;;;;;;-3.82;89.12;102431.81;5105772;28;20028;-68
2024/01/10 03:30:12;;;;;;;3.03;1.60;;;;;;;-3.91;88.93;102424.31;5106066;28;20032;-69
2024/01/10 03:32:37;;;;;;;1.52;1.50;;;;;;;-3.93;88.66;102432.56;5105853;28;20470;-69
2024/01/10 03:35:03;;;;;;;0.77;0.77;;;;;;;-3.96;88.52;102428.13;5105655;28;20012;-69
2024/01/10 03:37:29;;;;;;;2.85;2.63;;;;;;;-3.88;88.86;102436.38;5107424;28;20027;-69
2024/01/10 03:39:54;;;;;;;2.20;2.10;;;;;;;-3.84;88.99;102447.66;5107192;28;20027;-70
2024/01/10 03:42:19;;;;;;;3.47;2.75;;;;;;;-3.83;89.22;102439.31;5105699;28;20475;-68
2024/01/10 03:44:45;;;;;;;2.08;1.98;;;;;;;-3.89;89.22;102437.13;5105751;28;20028;-69
2024/01/10 03:47:10;;;;;;;3.80;3.55;;;;;;;-3.82;89.23;102448.69;5105821;28;20490;-69
2024/01/10 03:49:35;;;;;;;1.45;1.35;;;;;;;-3.83;89.24;102440.19;5107046;28;20370;-69
2024/01/10 03:52:01;;;;;;;1.05;1.05;;;;;;;-3.80;89.63;102442.09;5105654;28;20062;-69
2024/01/10 03:54:26;;;;;;;2.75;2.58;;;;;;;-3.82;89.72;102439.44;5106819;28;20024;-69
2024/01/10 03:56:51;;;;;;;1.55;1.48;;;;;;;-3.84;89.33;102440.97;5105567;28;20062;-69
2024/01/10 03:59:17;;;;;;;0.95;0.95;;;;;;;-3.82;89.33;102421.69;5106589;28;20379;-69
2024/01/10 04:01:43;;;;;;;5.25;2.55;;;;;;;-3.78;89.39;102422.78;5106485;28;20102;-69
2024/01/10 04:04:08;;;;;;;1.48;1.40;;;;;;;-3.85;89.34;102413.81;5106606;28;20027;-69
2024/01/10 04:06:34;;;;;;;8.45;2.88;;;;;;;-3.80;89.34;102427.75;5106886;28;20024;-70
2024/01/10 04:09:00;;;;;;;3.40;2.40;;;;;;;-3.81;89.18;102423.44;5106362;28;20460;-69
2024/01/10 04:11:25;;;;;;;2.08;1.98;;;;;;;-3.88;88.96;102421.13;5106572;28;20076;-69
2024/01/10 04:13:50;;;;;;;2.15;2.05;;;;;;;-3.83;89.10;102437.66;5106559;28;20216;-68
2024/01/10 04:16:16;;;;;;;1.25;1.25;;;;;;;-3.89;89.18;102429.53;5106704;28;20028;-69
2024/01/10 04:18:41;;;;;;;1.15;1.08;;;;;;;-3.88;89.24;102428.75;5105252;28;20016;-70
2024/01/10 04:21:07;;;;;;;3.25;2.97;;;;;;;-3.92;89.26;102429.28;5104990;28;20364;-69
2024/01/10 04:23:33;;;;;;;4.93;1.05;;;;;;;-3.90;89.29;102430.28;5106480;28;20016;-68
2024/01/10 04:25:59;;;;;;;6.82;4.20;;;;;;;-3.95;89.17;102421.41;5106431;28;20024;-68
2024/01/10 04:28:24;;;;;;;0.90;0.90;;;;;;;-4.07;89.35;102414.53;5106245;28;20026;-69
2024/01/10 04:30:49;;;;;;;0.70;0.70;;;;;;;-4.03;89.07;102416.59;5106151;28;20050;-68
2024/01/10 04:33:15;;;;;;;1.98;1.88;;;;;;;-4.00;89.04;102421.91;5106028;28;20039;-68
2024/01/10 04:35:40;;;;;;;0.80;0.80;;;;;;;-4.01;89.20;102421.78;5106075;28;20024;-68
2024/01/10 04:38:05;;;;;;;6.07;1.70;;;;;;;-4.05;89.50;102423.16;5104376;28;20024;-68
2024/01/10 04:40:32;;;;;;;3.03;2.83;;;;;;;-4.04;89.34;102417.31;5104511;28;20589;-69
2024/01/10 04:42:57;;;;;;;12.07;3.72;;;;;;;-3.96;89.50;102409.47;5106041;28;20105;-68
2024/01/10 04:45:22;;;;;;;4.88;1.85;;;;;;;-3.93;89.50;102408.06;5105945;28;20020;-68
2024/01/10 04:47:47;;;;;;;1.08;1.08;;;;;;;-3.98;89.59;102417.84;5105888;28;20024;-69
2024/01/10 04:50:13;;;;;;;0.63;0.63;;;;;;;-3.98;89.64;102412.75;5105817;28;20114;-69
2024/01/10 04:52:38;;;;;;;1.95;1.85;;;;;;;-3.90;89.61;102410.00;5104678;28;20486;-69
2024/01/10 04:55:05;;;;;;;2.63;2.03;;;;;;;-3.86;89.85;102412.91;5105704;28;20446;-70
2024/01/10 04:57:31;;;;;;;1.95;1.52;;;;;;;-3.79;89.47;102431.19;5105888;28;20035;-69
2024/01/10 04:59:57;;;;;;;1.85;1.75;;;;;;;-3.76;89.88;102432.34;5105679;28;20031;-68
2024/01/10 05:02:22;;;;;;;1.65;1.55;;;;;;;-3.78;89.84;102415.19;5105661;28;20026;-69
2024/01/10 05:04:49;;;;;;;2.05;1.95;;;;;;;-3.65;89.84;102425.59;5105629;28;20027;-69
2024/01/10 05:07:14;;;;;;;1.20;1.20;;;;;;;-3.59;89.90;102427.75;5105657;28;20460;-70
2024/01/10 05:09:39;;;;;;;0.65;0.65;;;;;;;-3.54;89.96;102417.97;5105657;28;20054;-69
2024/01/10 05:12:05;;;;;;;0.55;0.55;;;;;;;-3.51;90.04;102411.50;5105531;28;20031;-70
2024/01/10 05:14:31;;;;;;;0.60;0.60;;;;;;;-3.45;89.81;102410.22;5105577;28;20429;-69
2024/01/10 05:16:56;;;;;;;2.08;1.38;;;;;;;-3.49;90.17;102396.38;5105534;28;20028;-70
2024/01/10 05:19:22;;;;;;;1.60;1.50;;;;;;;-3.49;89.95;102393.84;5103956;28;20020;-69
2024/01/10 05:21:47;;;;;;;1.13;1.13;;;;;;;-3.45;89.80;102397.53;5105549;28;20086;-69
2024/01/10 05:24:12;;;;;;;1.95;1.25;;;;;;;-3.40;89.68;102393.69;5105469;28;20366;-68
2024/01/10 05:26:38;;;;;;;1.05;1.05;;;;;;;-3.37;89.84;102393.97;5105503;28;20084;-69
2024/01/10 05:29:03;;;;;;;2.28;2.08;;;;;;;-3.37;89.95;102386.34;5105196;28;20024;-69
2024/01/10 05:31:28;;;;;;;0.65;0.65;;;;;;;-3.25;90.00;102386.44;5105275;28;20020;-69
2024/01/10 05:33:54;;;;;;;0.95;0.95;;;;;;;-3.24;90.02;102391.63;5104629;28;20505;-69
2024/01/10 05:36:23;;;;;;;0.60;0.60;;;;;;;-3.19;90.11;102383.47;5105235;28;20026;-70
2024/01/10 05:38:48;;;;;;;6.15;1.83;;;;;;;-3.12;90.10;102389.22;5103806;28;20043;-70
2024/01/10 05:41:14;;;;;;;0.52;0.52;;;;;;;-3.16;90.26;102378.66;5105341;28;20020;-70
2024/01/10 05:43:40;;;;;;;0.60;0.60;;;;;;;-3.15;90.14;102385.53;5104065;28;20023;-70
2024/01/10 05:46:05;;;;;;;0.55;0.55;;;;;;;-3.08;90.18;102377.59;5104978;28;20031;-69
2024/01/10 05:48:30;;;;;;;0.50;0.50;;;;;;;-2.99;90.18;102382.56;5104238;28;20016;-70
2024/01/10 05:50:56;;;;;;;0.82;0.82;;;;;;;-2.95;90.22;102378.56;5108178;28;20074;-70
2024/01/10 05:53:24;;;;;;;1.13;1.13;;;;;;;-2.90;90.45;102382.38;5109634;28;20056;-69
2024/01/10 05:55:50;;;;;;;0.60;0.60;;;;;;;-2.88;90.53;102374.13;5109388;28;20031;-70
2024/01/10 05:58:16;;;;;;;2.67;0.82;;;;;;;-2.83;90.58;102377.03;5109503;28;20020;-69
2024/01/10 06:00:41;;;;;;;3.13;2.05;;;;;;;-2.81;90.55;102372.94;5107538;28;20055;-70
2024/01/10 06:03:07;;;;;;;4.70;1.77;;;;;;;-2.76;90.54;102365.66;5107841;28;20024;-70
2024/01/10 06:05:32;;;;;;;1.35;1.35;;;;;;;-2.75;90.42;102360.69;5109070;28;20024;-70
2024/01/10 06:07:58;;;;;;;1.50;0.90;;;;;;;-2.72;90.55;102361.72;5108891;28;20578;-70
2024/01/10 06:10:23;;;;;;;0.90;0.90;;;;;;;-2.68;90.48;102369.69;5109013;28;20066;-70
2024/01/10 06:12:49;;;;;;;0.60;0.60;;;;;;;-2.66;90.41;102364.72;5108996;28;20103;-69
2024/01/10 06:15:14;;;;;;;1.80;1.70;;;;;;;-2.64;90.54;102353.03;5108967;28;20102;-69
2024/01/10 06:17:40;;;;;;;0.82;0.82;;;;;;;-2.67;90.64;102340.06;5107519;28;20571;-69
2024/01/10 06:20:06;;;;;;;6.93;3.03;;;;;;;-2.68;90.42;102343.38;5108861;28;20035;-69
2024/01/10 06:22:32;;;;;;;0.77;0.77;;;;;;;-2.59;90.36;102350.84;5108787;28;20024;-70
2024/01/10 06:24:58;;;;;;;2.58;2.38;;;;;;;-2.60;90.33;102347.41;5109010;28;20027;-68
2024/01/10 06:27:23;;;;;;;3.95;2.45;;;;;;;-2.74;90.34;102329.44;5108814;28;20024;-68
2024/01/10 06:29:49;;;;;;;1.60;1.50;;;;;;;-2.65;90.28;102325.84;5108732;28;20035;-70
2024/01/10 06:32:14;;;;;;;1.65;1.55;;;;;;;-2.56;90.50;102335.81;5107327;28;20134;-70
2024/01/10 06:34:40;;;;;;;3.85;1.45;;;;;;;-2.53;90.51;102328.41;5108644;28;20035;-69
2024/01/10 06:37:07;;;;;;;2.05;1.40;;;;;;;-2.54;90.63;102335.16;5108679;28;20016;-69
2024/01/10 06:39:33;;;;;;;0.50;0.50;;;;;;;-2.51;90.60;102325.19;5108492;28;20024;-69
2024/01/10 06:41:58;;;;;;;1.27;1.27;;;;;;;-2.50;90.53;102334.63;5107234;28;20062;-69
2024/01/10 06:44:24;;;;;;;0.60;0.60;;;;;;;-2.52;90.84;102343.78;5108499;28;20020;-69
2024/01/10 06:46:49;;;;;;;1.50;1.42;;;;;;;-2.51;90.75;102350.63;5106697;28;20053;-69
2024/01/10 06:49:14;;;;;;;1.83;1.73;;;;;;;-2.49;90.66;102351.66;5108124;28;20115;-69
2024/01/10 06:51:40;;;;;;;0.93;0.93;;;;;;;-2.43;90.91;102351.22;5108372;28;20468;-69
2024/01/10 06:54:05;;;;;;;8.57;1.40;;;;;;;-2.39;90.92;102342.19;5107813;28;20024;-69
2024/01/10 06:56:32;;;;;;;1.60;1.50;;;;;;;-2.37;90.95;102330.47;5107423;28;20028;-69
2024/01/10 06:58:58;;;;;;;4.80;2.05;;;;;;;-2.36;91.02;102337.31;5108102;28;20027;-69
2024/01/10 07:01:24;;;;;;;2.67;2.47;;;;;;;-2.32;90.87;102352.06;5107125;28;20055;-69
2024/01/10 07:03:49;;;;;;;2.17;2.08;;;;;;;-2.35;91.02;102353.47;5108242;28;20058;-69
2024/01/10 07:06:15;;;;;;;1.52;1.45;;;;;;;-2.33;90.95;102365.53;5107959;28;20476;-69
2024/01/10 07:08:42;;;;;;;3.70;1.30;;;;;;;-2.33;90.92;102352.81;5106788;28;20024;-69
2024/01/10 07:11:08;;;;;;;2.60;0.95;;;;;;;-2.39;90.82;102335.44;5107792;28;20024;-69
2024/01/10 07:13:33;;;;;;;2.42;2.22;;;;;;;-2.39;90.82;102343.06;5108030;28;20107;-69
2024/01/10 07:16:01;;;;;;;1.60;1.50;;;;;;;-2.39;90.85;102349.81;5107966;28;20038;-69
2024/01/10 07:18:28;;;;;;;7.30;1.70;;;;;;;-2.46;90.42;102325.56;5107944;28;20020;-68
2024/01/10 07:20:53;;;;;;;1.35;1.30;;;;;;;-2.32;90.62;102344.44;5107737;28;20031;-69
2024/01/10 07:23:18;;;;;;;6.97;1.60;;;;;;;-2.31;90.79;102336.03;5107755;28;20020;-69
2024/01/10 07:25:44;;;;;;;6.28;1.80;;;;;;;-2.26;91.03;102352.53;5107671;28;20413;-69
2024/01/10 07:28:09;;;;;;;2.10;1.98;;;;;;;-2.21;90.97;102347.78;5107654;28;20036;-68
2024/01/10 07:30:35;;;;;;;4.45;3.65;;;;;;;-2.22;90.58;102335.81;5107499;28;20027;-68
2024/01/10 07:33:01;;;;;;;19.30;2.05;;;;;;;-2.18;90.99;102336.94;5107516;28;20073;-69
2024/01/10 07:35:27;;;;;;;2.35;2.15;;;;;;;-2.20;91.13;102341.03;5107400;28;20023;-69
2024/01/10 07:37:52;;;;;;;3.50;3.20;;;;;;;-2.17;91.14;102341.28;5107671;28;20023;-69
2024/01/10 07:40:18;;;;;;;2.67;2.47;;;;;;;-2.13;91.11;102336.53;5107489;28;20047;-69
2024/01/10 07:42:43;;;;;;;2.42;2.05;;;;;;;-2.08;91.34;102338.53;5107443;28;20020;-69
2024/01/10 07:45:09;;;;;;;0.75;0.75;;;;;;;-2.10;91.30;102333.31;5107485;28;20075;-69
2024/01/10 07:47:38;;;;;;;2.47;2.28;;;;;;;-2.07;91.41;102332.66;5107454;28;20024;-69
2024/01/10 07:50:08;;;;;;;7.57;3.22;;;;;;;-2.01;91.27;102331.47;5107061;28;20507;-68
2024/01/10 07:52:34;;;;;;;1.25;1.20;;;;;;;-2.09;91.34;102311.31;5107228;28;20026;-69
2024/01/10 07:55:00;;;;;;;4.65;4.20;;;;;;;-1.91;91.31;102329.59;5107295;28;20049;-69
2024/01/10 07:57:26;;;;;;;2.50;1.58;;;;;;;-1.86;91.47;102328.28;5105736;28;20024;-69
2024/01/10 07:59:52;;;;;;;2.05;1.95;;;;;;;-1.83;91.52;102325.97;5107246;28;20063;-69
2024/01/10 08:02:17;;;;;;;3.67;3.03;;;;;;;-1.82;91.73;102335.34;5107024;28;20027;-68
2024/01/10 08:04:43;;;;;;;2.35;2.25;;;;;;;-1.78;91.57;102331.38;5106778;28;20106;-68
2024/01/10 08:07:08;;;;;;;0.80;0.80;;;;;;;-1.76;91.70;102320.53;5105932;28;20024;-70
2024/01/10 08:09:34;;;;;;;4.05;2.10;;;;;;;-1.66;91.82;102331.41;5105724;28;20081;-69
2024/01/10 08:11:59;;;;;;;3.53;1.33;;;;;;;-1.70;91.78;102321.75;5106859;28;20529;-68
2024/01/10 08:14:25;;;;;;;6.07;3.03;;;;;;;-1.62;91.85;102330.84;5105819;28;20384;-70
2024/01/10 08:16:53;;;;;;;2.28;2.13;;;;;;;-1.63;91.76;102322.31;5106652;28;20099;-68
2024/01/10 08:19:21;;;;;;;2.90;2.63;;;;;;;-1.58;91.88;102325.19;5106596;28;20430;-70
2024/01/10 08:21:47;;;;;;;4.07;2.40;;;;;;;-1.52;91.85;102329.88;5106903;28;20058;-69
2024/01/10 08:24:12;;;;;;;3.55;2.35;;;;;;;-1.53;91.81;102325.53;5106798;28;20086;-69
2024/01/10 08:26:37;;;;;;;2.47;2.35;;;;;;;-1.46;91.81;102337.06;5106856;28;20047;-69
2024/01/10 08:29:03;;;;;;;2.60;1.75;;;;;;;-1.51;91.88;102326.53;5106525;28;20031;-69
2024/01/10 08:31:29;;;;;;;3.17;2.00;;;;;;;-1.44;91.96;102335.50;5106437;28;20024;-69
2024/01/10 08:33:56;;;;;;;0.63;0.63;;;;;;;-1.42;92.10;102339.06;5106459;28;20044;-69
2024/01/10 08:36:24;;;;;;;5.95;2.20;;;;;;;-1.41;92.00;102335.72;5106064;28;20024;-69
2024/01/10 08:38:50;;;;;;;4.60;2.72;;;;;;;-1.36;92.26;102334.41;5105006;28;20020;-68
2024/01/10 08:41:15;;;;;;;2.67;2.00;;;;;;;-1.48;91.94;102323.31;5104886;28;20024;-69
2024/01/10 08:43:41;;;;;;;6.13;1.85;;;;;;;-1.43;91.79;102322.88;5106351;28;20027;-68
2024/01/10 08:46:08;;;;;;;2.40;2.22;;;;;;;-1.33;91.88;102332.06;5105044;28;20031;-69
2024/01/10 08:48:33;;;;;;;0.60;0.60;;;;;;;-1.36;91.69;102319.13;5104985;28;20020;-68
2024/01/10 08:50:59;;;;;;;1.23;1.00;;;;;;;-1.31;91.81;102327.09;5106023;28;20028;-69
2024/01/10 08:53:24;;;;;;;2.28;2.13;;;;;;;-1.26;92.31;102335.94;5106159;28;20024;-69
2024/01/10 08:55:50;;;;;;;5.05;2.40;;;;;;;-1.30;92.09;102328.84;5106039;28;20077;-69
2024/01/10 08:58:15;;;;;;;7.32;2.88;;;;;;;-1.27;92.18;102317.22;5104738;28;20052;-69
2024/01/10 09:00:40;;;;;;;1.70;1.65;;;;;;;-1.24;92.23;102339.47;5105986;28;20077;-69
2024/01/10 09:03:07;;;;;;;1.02;1.02;;;;;;;-1.25;91.81;102332.63;5106112;28;20024;-69
2024/01/10 09:05:32;;;;;;;1.73;1.63;;;;;;;-1.34;91.69;102322.63;5105779;28;20107;-68
2024/01/10 09:07:58;;;;;;;7.13;2.53;;;;;;;-1.31;91.74;102333.06;5106118;28;20020;-69
2024/01/10 09:10:23;;;;;;;2.47;1.63;;;;;;;-1.32;91.94;102316.00;5105873;28;20075;-69
2024/01/10 09:12:49;;;;;;;1.70;1.60;;;;;;;-1.26;92.18;102333.38;5106137;28;20096;-68
2024/01/10 09:15:15;;;;;;;8.68;2.13;;;;;;;-1.24;92.03;102334.38;5104692;28;20038;-69
2024/01/10 09:17:44;;;;;;;2.58;2.38;;;;;;;-1.32;92.09;102336.38;5104678;28;20020;-69
2024/01/10 09:20:10;;;;;;;2.33;2.22;;;;;;;-1.44;91.61;102320.22;5105464;28;20049;-68
2024/01/10 09:22:37;;;;;;;4.57;2.25;;;;;;;-1.43;91.62;102332.19;5105837;28;20091;-69
2024/01/10 09:25:05;;;;;;;1.63;1.52;;;;;;;-1.39;92.17;102324.88;5105559;28;20020;-69
2024/01/10 09:27:31;;;;;;;4.55;2.47;;;;;;;-1.32;92.06;102315.09;5105699;28;20024;-69
2024/01/10 09:29:56;;;;;;;2.85;1.73;;;;;;;-1.27;92.39;102329.97;5105785;28;20024;-68
2024/01/10 09:32:25;;;;;;;14.85;1.40;;;;;;;-1.35;92.03;102320.88;5105571;28;20098;-69
2024/01/10 09:34:50;;;;;;;0.80;0.73;;;;;;;-1.32;91.84;102326.19;5105507;28;20020;-69
2024/01/10 09:37:17;;;;;;;2.05;1.95;;;;;;;-1.38;91.69;102325.75;5105541;28;20051;-69
2024/01/10 09:39:42;;;;;;;6.00;3.08;;;;;;;-1.42;91.36;102324.66;5105383;28;20306;-69
2024/01/10 09:42:08;;;;;;;2.85;2.65;;;;;;;-1.46;91.53;102316.66;5105701;28;20107;-69
2024/01/10 09:44:33;;;;;;;11.55;2.50;;;;;;;-1.42;92.03;102316.13;5105722;28;20480;-68
2024/01/10 09:47:00;;;;;;;0.80;0.80;;;;;;;-1.27;92.47;102319.78;5105659;28;20486;-68
2024/01/10 09:49:27;;;;;;;3.55;2.50;;;;;;;-1.23;92.67;102322.53;5104136;28;20020;-69
2024/01/10 09:51:59;;;;;;;4.55;3.90;;;;;;;-1.25;92.17;102313.09;5105489;28;20131;-69
2024/01/10 09:54:26;;;;;;;4.95;2.38;;;;;;;-1.21;92.03;102323.50;5105622;28;20089;-69
2024/01/10 09:56:53;;;;;;;5.40;2.92;;;;;;;-1.22;91.97;102326.84;5105384;28;20031;-69
2024/01/10 09:59:18;;;;;;;1.10;1.10;;;;;;;-1.29;91.89;102328.06;5105488;28;20054;-69
2024/01/10 10:01:43;;;;;;;3.47;2.63;;;;;;;-1.38;91.46;102330.84;5105226;28;20024;-68
2024/01/10 10:04:12;;;;;;;3.38;2.38;;;;;;;-1.48;91.38;102330.94;5103952;28;20024;-68
2024/01/10 10:06:37;;;;;;;1.35;1.27;;;;;;;-1.47;91.21;102330.19;5105262;28;20091;-69
2024/01/10 10:09:03;;;;;;;4.53;3.47;;;;;;;-1.48;91.64;102339.50;5105255;28;20062;-68
2024/01/10 10:11:29;;;;;;;7.13;3.22;;;;;;;-1.58;91.85;102332.84;5105386;28;20048;-69
2024/01/10 10:13:54;;;;;;;10.15;1.85;;;;;;;-1.45;91.68;102333.75;5103842;28;20564;-68
2024/01/10 10:16:27;;;;;;;2.60;1.60;;;;;;;-1.43;91.71;102333.06;5105197;28;20084;-68
2024/01/10 10:18:57;;;;;;;2.55;2.35;;;;;;;-1.43;91.77;102329.63;5105322;28;20039;-68
2024/01/10 10:21:24;;;;;;;1.10;1.10;;;;;;;-1.42;92.08;102329.75;5105055;28;20364;-68
2024/01/10 10:24:05;;;;;;;1.92;1.83;;;;;;;-1.37;92.33;102322.41;5105167;28;20101;-70
2024/01/10 10:26:34;;;;;;;3.08;2.72;;;;;;;-1.28;92.49;102325.63;5103756;28;20035;-68
2024/01/10 10:29:00;;;;;;;3.80;2.45;;;;;;;-1.36;91.85;102329.31;5105188;28;20035;-69
2024/01/10 10:31:26;;;;;;;2.78;2.45;;;;;;;-1.59;91.15;102336.16;5104880;28;20027;-68
2024/01/10 10:33:52;;;;;;;9.63;3.08;;;;;;;-1.65;91.17;102318.78;5104647;28;20117;-68
2024/01/10 10:36:19;;;;;;;3.13;2.58;;;;;;;-1.55;91.80;102314.34;5104809;28;20084;-69
2024/01/10 10:38:47;;;;;;;1.58;1.48;;;;;;;-1.44;92.40;102313.47;5108872;28;20024;-69
2024/01/10 10:41:14;;;;;;;1.35;1.25;;;;;;;-1.34;92.77;102332.84;5108628;28;20466;-69
2024/01/10 10:43:40;;;;;;;7.93;2.33;;;;;;;-1.33;92.73;102313.34;5108481;28;20536;-68
2024/01/10 10:46:12;;;;;;;0.70;0.70;;;;;;;-1.16;92.37;102322.19;5108423;28;20031;-67
2024/01/10 10:48:38;;;;;;;1.77;1.67;;;;;;;-1.13;92.29;102307.09;5108615;28;20107;-69
2024/01/10 10:51:33;;;;;;;3.60;2.45;;;;;;;-1.19;92.09;102306.66;5108186;28;20027;-69
2024/01/10 10:53:59;;;;;;;2.90;2.15;;;;;;;-1.07;92.03;102309.22;5108510;28;20083;-69
2024/01/10 10:56:29;;;;;;;3.50;2.47;;;;;;;-0.96;92.25;102317.63;5108454;28;20095;-69
2024/01/10 10:58:56;;;;;;;3.88;3.58;;;;;;;-0.80;92.21;102317.88;5108292;28;20020;-69
2024/01/10 11:01:23;;;;;;;4.50;2.42;;;;;;;-0.72;92.40;102312.44;5107920;28;20384;-68
2024/01/10 11:03:49;;;;;;;6.85;3.17;;;;;;;-0.67;92.44;102306.00;5108208;28;20044;-68
2024/01/10 11:06:14;;;;;;;3.22;3.00;;;;;;;-0.59;92.43;102299.72;5108129;28;20023;-69
2024/01/10 11:08:48;;;;;;;3.40;2.22;;;;;;;-0.45;92.71;102295.59;5108138;28;20047;-70
2024/01/10 11:11:46;;;;;;;3.75;2.75;;;;;;;-0.19;92.76;102295.56;5108099;28;20034;-70
2024/01/10 11:14:39;;;;;;;3.83;3.13;;;;;;;0.13;93.33;102298.47;5107019;28;20035;-69
2024/01/10 11:17:35;;;;;;;18.10;3.58;;;;;;;0.20;92.64;102293.84;5107971;28;20059;-70
2024/01/10 11:20:25;;;;;;;2.15;1.83;;;;;;;0.10;91.58;102288.91;5107701;28;20074;-70